createdAt,value
2023-02-21T00:00:00.987Z,165.70
2023-02-21T00:05:39.456Z,157.82
2023-02-21T00:27:49.321Z,267.77
2023-02-21T00:38:46.421Z,232.15
2023-02-21T00:47:00.145Z,332.52
2023-02-21T00:49:45.608Z,312.90
2023-02-21T00:52:30.871Z,316.02
2023-02-21T00:55:16.506Z,363.52
2023-02-21T00:58:02.064Z,417.40
2023-02-21T01:00:47.544Z,465.05
2023-02-21T01:11:48.584Z,378.55
2023-02-21T01:22:47.409Z,427.35
2023-02-21T01:28:17.011Z,319.27
2023-02-21T01:31:02.644Z,315.92
2023-02-21T01:50:29.524Z,204.30
2023-02-21T01:53:15.055Z,226.05
2023-02-21T01:58:46.246Z,226.35
2023-02-21T02:15:10.153Z,239.52
2023-02-21T02:17:40.057Z,273.52
2023-02-21T02:22:52.178Z,255.80
2023-02-21T02:25:31.065Z,217.70
2023-02-21T02:28:08.883Z,238.45
2023-02-21T02:33:23.412Z,185.90
2023-02-21T02:36:00.829Z,387.80
2023-02-21T02:38:33.700Z,181.15
2023-02-21T02:44:10.109Z,166.98
2023-02-21T02:46:38.935Z,173.18
2023-02-21T02:54:15.842Z,258.38
2023-02-21T02:56:42.852Z,246.80
2023-02-21T02:59:11.320Z,257.65
2023-02-21T03:07:15.539Z,375.58
2023-02-21T03:09:46.622Z,257.20
2023-02-21T03:12:29.822Z,232.95
2023-02-21T03:14:57.206Z,255.18
2023-02-21T03:17:26.686Z,380.65
2023-02-21T03:22:21.823Z,250.27
2023-02-21T03:24:49.904Z,232.50
2023-02-21T03:27:18.227Z,209.95
2023-02-21T03:32:17.621Z,221.88
2023-02-21T03:37:34.328Z,216.48
2023-02-21T03:40:01.329Z,174.40
2023-02-21T03:42:30.964Z,181.70
2023-02-21T03:44:57.833Z,224.25
2023-02-21T03:47:25.344Z,172.13
2023-02-21T03:49:52.721Z,134.95
2023-02-21T03:52:19.962Z,160.38
2023-02-21T04:00:15.288Z,181.60
2023-02-21T04:02:42.862Z,166.20
2023-02-21T04:05:16.462Z,220.50
2023-02-21T04:07:43.947Z,168.55
2023-02-21T04:10:11.116Z,273.52
2023-02-21T04:17:29.372Z,293.20
2023-02-21T04:19:58.164Z,256.55
2023-02-21T04:22:25.047Z,241.88
2023-02-21T04:24:51.785Z,192.55
2023-02-21T04:29:45.574Z,357.20
2023-02-21T04:32:12.899Z,410.52
2023-02-21T04:39:31.678Z,372.48
2023-02-21T04:44:24.390Z,304.00
2023-02-21T04:46:51.343Z,366.63
2023-02-21T04:51:44.671Z,357.52
2023-02-21T04:54:14.015Z,385.48
2023-02-21T04:56:41.118Z,403.00
2023-02-21T04:59:08.046Z,309.85
2023-02-21T05:01:35.097Z,341.23
2023-02-21T05:06:28.465Z,439.50
2023-02-21T05:08:55.661Z,633.90
2023-02-21T05:13:49.519Z,461.45
2023-02-21T05:16:16.777Z,594.38
2023-02-21T05:18:44.351Z,571.58
2023-02-21T05:21:11.373Z,607.42
2023-02-21T05:23:41.017Z,436.63
2023-02-21T05:26:09.327Z,430.20
2023-02-21T05:28:36.830Z,504.25
2023-02-21T05:31:04.358Z,551.00
2023-02-21T05:33:31.794Z,578.83
2023-02-21T05:35:59.248Z,487.55
2023-02-21T05:38:26.736Z,464.25
2023-02-21T05:45:45.449Z,429.00
2023-02-21T05:53:05.658Z,356.00
2023-02-21T05:55:32.672Z,340.85
2023-02-21T06:00:29.093Z,350.30
2023-02-21T06:02:56.343Z,325.58
2023-02-21T06:07:49.554Z,273.52
2023-02-21T06:10:17.120Z,273.23
2023-02-21T06:12:44.230Z,353.95
2023-02-21T06:15:12.897Z,202.73
2023-02-21T06:17:40.475Z,300.90
2023-02-21T06:22:33.907Z,293.55
2023-02-21T06:25:01.006Z,287.88
2023-02-21T06:27:28.057Z,296.88
2023-02-21T06:29:55.181Z,362.38
2023-02-21T06:32:22.147Z,243.13
2023-02-21T06:49:23.670Z,349.75
2023-02-21T06:54:17.474Z,251.02
2023-02-21T06:56:45.048Z,245.98
2023-02-21T06:59:12.027Z,215.80
2023-02-21T07:01:38.902Z,210.95
2023-02-21T07:04:05.805Z,205.10
2023-02-21T07:08:59.221Z,683.83
2023-02-21T07:11:26.348Z,323.02
2023-02-21T07:16:20.115Z,260.75
2023-02-21T07:18:47.488Z,181.60
2023-02-21T07:21:15.425Z,285.33
2023-02-21T07:23:46.013Z,224.35
2023-02-21T07:26:12.793Z,233.10
2023-02-21T07:33:31.069Z,238.40
2023-02-21T07:35:58.387Z,184.23
2023-02-21T07:38:26.506Z,190.63
2023-02-21T07:40:59.363Z,310.65
2023-02-21T07:45:52.434Z,174.18
2023-02-21T07:48:19.580Z,245.32
2023-02-21T07:50:46.682Z,228.68
2023-02-21T07:53:14.152Z,195.70
2023-02-21T07:55:41.309Z,114.05
2023-02-21T07:58:08.321Z,208.27
2023-02-21T08:00:36.828Z,185.85
2023-02-21T08:03:04.928Z,229.73
2023-02-21T08:05:32.186Z,202.95
2023-02-21T08:07:59.341Z,269.73
2023-02-21T08:10:27.616Z,218.05
2023-02-21T08:12:54.549Z,279.85
2023-02-21T08:15:21.555Z,343.55
2023-02-21T08:17:49.539Z,311.67
2023-02-21T08:20:16.763Z,369.02
2023-02-21T08:22:44.090Z,214.07
2023-02-21T08:32:51.461Z,185.43
2023-02-21T08:40:12.549Z,208.40
2023-02-21T08:45:05.602Z,158.60
2023-02-21T08:47:35.411Z,299.35
2023-02-21T08:50:02.532Z,285.83
2023-02-21T08:52:29.407Z,187.27
2023-02-21T08:54:56.313Z,204.45
2023-02-21T08:57:23.307Z,165.38
2023-02-21T08:59:50.271Z,257.73
2023-02-21T09:02:18.272Z,248.52
2023-02-21T09:04:45.722Z,179.50
2023-02-21T09:07:16.695Z,130.50
2023-02-21T09:12:15.417Z,130.95
2023-02-21T09:14:43.130Z,88.13
2023-02-21T09:19:36.542Z,80.35
2023-02-21T09:22:04.600Z,158.85
2023-02-21T09:31:59.145Z,75.15
2023-02-21T09:34:28.263Z,116.97
2023-02-21T09:36:58.026Z,59.45
2023-02-21T09:39:25.296Z,92.57
2023-02-21T09:41:53.718Z,78.03
2023-02-21T09:44:22.085Z,75.85
2023-02-21T09:46:50.137Z,70.13
2023-02-21T10:09:28.226Z,45.92
2023-02-21T10:11:55.475Z,70.97
2023-02-21T10:14:41.061Z,57.17
2023-02-21T10:17:16.107Z,44.05
2023-02-21T10:19:45.024Z,59.28
2023-02-21T10:22:24.917Z,49.20
2023-02-21T10:24:52.268Z,74.82
2023-02-21T10:27:20.826Z,61.47
2023-02-21T10:29:47.600Z,56.38
2023-02-21T10:37:28.318Z,48.88
2023-02-21T10:39:57.585Z,48.35
2023-02-21T10:42:35.150Z,52.60
2023-02-21T10:45:03.122Z,81.75
2023-02-21T10:50:05.748Z,78.75
2023-02-21T10:52:59.042Z,83.15
2023-02-21T10:55:33.259Z,77.90
2023-02-21T10:58:06.969Z,86.32
2023-02-21T11:00:38.863Z,97.75
2023-02-21T11:05:48.618Z,96.28
2023-02-21T11:13:16.719Z,63.08
2023-02-21T11:15:44.339Z,64.47
2023-02-21T11:18:18.861Z,56.15
2023-02-21T11:20:46.630Z,59.45
2023-02-21T11:23:19.375Z,60.22
2023-02-21T11:25:46.638Z,53.45
2023-02-21T11:28:13.506Z,53.83
2023-02-21T11:30:46.423Z,46.88
2023-02-21T11:33:13.399Z,46.10
2023-02-21T11:35:46.416Z,46.88
2023-02-21T11:38:31.652Z,42.55
2023-02-21T11:40:58.798Z,37.78
2023-02-21T11:43:27.485Z,37.55
2023-02-21T11:50:57.922Z,40.25
2023-02-21T11:53:25.098Z,36.80
2023-02-21T11:55:58.347Z,31.83
2023-02-21T12:01:07.477Z,30.45
2023-02-21T12:06:08.248Z,24.15
2023-02-21T12:08:38.426Z,26.20
2023-02-21T12:11:22.254Z,26.77
2023-02-21T12:14:04.122Z,22.60
2023-02-21T12:16:31.143Z,21.08
2023-02-21T12:18:58.006Z,21.45
2023-02-21T12:34:56.510Z,31.67
2023-02-21T12:39:51.939Z,19.90
2023-02-21T12:47:32.479Z,20.90
2023-02-21T12:50:04.881Z,19.52
2023-02-21T12:57:36.258Z,25.05
2023-02-21T13:00:17.902Z,21.98
2023-02-21T13:02:58.891Z,29.88
2023-02-21T13:05:31.825Z,21.08
2023-02-21T13:08:04.193Z,22.08
2023-02-21T13:10:50.764Z,19.17
2023-02-21T13:36:25.651Z,19.30
2023-02-21T13:39:04.068Z,22.63
2023-02-21T13:41:42.320Z,19.50
2023-02-21T13:44:41.140Z,24.15
2023-02-21T13:55:14.513Z,22.05
2023-02-21T13:57:44.389Z,57.08
2023-02-21T14:03:09.192Z,33.35
2023-02-21T14:05:44.701Z,20.17
2023-02-21T14:11:07.227Z,44.45
2023-02-21T14:13:54.966Z,23.25
2023-02-21T14:21:41.314Z,21.48
2023-02-21T14:26:36.958Z,31.40
2023-02-21T14:29:11.294Z,22.45
2023-02-21T14:31:58.658Z,83.47
2023-02-21T14:37:15.455Z,35.92
2023-02-21T14:39:48.535Z,52.20
2023-02-21T14:42:26.992Z,29.95
2023-02-21T14:58:46.317Z,25.77
2023-02-21T15:01:26.098Z,25.73
2023-02-21T15:04:10.432Z,26.23
2023-02-21T15:06:40.094Z,26.95
2023-02-21T15:09:18.037Z,28.48
2023-02-21T15:11:45.400Z,22.98
2023-02-21T15:14:13.951Z,29.90
2023-02-21T15:16:43.872Z,26.00
2023-02-21T15:21:45.419Z,47.88
2023-02-21T15:24:14.060Z,28.63
2023-02-21T15:34:00.187Z,30.15
2023-02-21T15:36:27.346Z,26.98
2023-02-21T15:38:54.334Z,32.72
2023-02-21T15:44:09.677Z,40.15
2023-02-21T15:54:17.481Z,38.05
2023-02-21T16:14:27.514Z,107.75
2023-02-21T16:17:06.402Z,37.88
2023-02-21T16:19:47.946Z,45.88
2023-02-21T16:27:36.550Z,45.60
2023-02-21T16:30:05.431Z,61.42
2023-02-21T16:32:35.949Z,135.18
2023-02-21T16:35:03.160Z,96.05
2023-02-21T16:37:30.161Z,77.97
2023-02-21T16:39:57.312Z,68.93
2023-02-21T16:47:16.549Z,61.38
2023-02-21T16:57:43.324Z,52.30
2023-02-21T17:00:10.526Z,48.03
2023-02-21T17:02:37.833Z,42.97
2023-02-21T17:05:04.780Z,40.20
2023-02-21T17:07:31.950Z,46.28
2023-02-21T17:09:58.947Z,41.10
2023-02-21T17:14:51.384Z,44.90
2023-02-21T17:17:18.364Z,43.42
2023-02-21T17:19:45.396Z,44.20
2023-02-21T17:22:12.409Z,44.20
2023-02-21T17:24:40.122Z,51.63
2023-02-21T17:29:32.575Z,44.78
2023-02-21T17:31:59.715Z,54.85
2023-02-21T17:34:28.969Z,50.22
2023-02-21T17:36:56.008Z,48.60
2023-02-21T17:39:22.843Z,45.53
2023-02-21T17:41:50.570Z,51.00
2023-02-21T17:44:20.612Z,47.78
2023-02-21T17:46:48.539Z,45.05
2023-02-21T17:49:19.575Z,98.45
2023-02-21T17:51:49.671Z,58.30
2023-02-21T17:54:18.233Z,50.97
2023-02-21T17:56:45.075Z,53.70
2023-02-21T18:01:37.966Z,68.95
2023-02-21T18:04:05.050Z,57.70
2023-02-21T18:06:32.136Z,56.45
2023-02-21T18:08:59.301Z,59.55
2023-02-21T18:11:26.544Z,86.63
2023-02-21T18:16:21.291Z,57.40
2023-02-21T18:18:49.126Z,49.58
2023-02-21T18:23:45.539Z,54.78
2023-02-21T18:26:13.022Z,57.78
2023-02-21T18:28:40.223Z,56.40
2023-02-21T18:31:09.389Z,48.42
2023-02-21T18:33:37.756Z,51.03
2023-02-21T18:38:34.508Z,47.95
2023-02-21T18:41:02.365Z,48.25
2023-02-21T18:43:30.228Z,55.08
2023-02-21T18:45:58.257Z,51.45
2023-02-21T18:48:25.768Z,66.45
2023-02-21T18:50:52.914Z,56.45
2023-02-21T18:53:19.872Z,50.10
2023-02-21T18:55:46.786Z,49.58
2023-02-21T18:58:13.925Z,46.55
2023-02-21T19:00:41.092Z,47.70
2023-02-21T19:03:08.784Z,54.53
2023-02-21T19:15:20.204Z,58.92
2023-02-21T19:17:48.149Z,51.50
2023-02-21T19:20:15.607Z,66.68
2023-02-21T19:25:08.218Z,80.55
2023-02-21T19:27:35.299Z,118.00
2023-02-21T19:30:02.337Z,142.05
2023-02-21T19:32:29.397Z,74.57
2023-02-21T19:34:56.316Z,74.78
2023-02-21T19:37:24.445Z,81.13
2023-02-21T19:39:51.402Z,71.28
2023-02-21T19:45:21.174Z,79.20
2023-02-21T19:47:48.352Z,73.78
2023-02-21T19:50:15.468Z,69.43
2023-02-21T19:57:34.080Z,68.05
2023-02-21T20:00:01.093Z,70.30
2023-02-21T20:02:28.217Z,75.13
2023-02-21T20:04:55.288Z,71.15
2023-02-21T20:12:13.812Z,75.32
2023-02-21T20:19:38.088Z,82.10
2023-02-21T20:22:06.256Z,86.72
2023-02-21T20:24:36.665Z,95.97
2023-02-21T20:27:04.151Z,97.28
2023-02-21T20:41:57.417Z,79.28
2023-02-21T20:44:24.671Z,75.20
2023-02-21T20:46:51.942Z,79.30
2023-02-21T20:51:48.317Z,112.18
2023-02-21T20:54:19.983Z,105.38
2023-02-21T21:13:57.589Z,94.70
2023-02-21T21:16:24.850Z,87.95
2023-02-21T21:18:52.080Z,90.72
2023-02-21T21:26:53.422Z,101.25
2023-02-21T21:34:28.729Z,104.60
2023-02-21T21:36:57.521Z,100.85
2023-02-21T21:39:25.392Z,104.60
2023-02-21T21:52:14.218Z,94.85
2023-02-21T21:54:47.847Z,90.85
2023-02-21T22:04:40.532Z,88.93
2023-02-21T22:12:02.052Z,93.47
2023-02-21T22:16:55.318Z,86.55
2023-02-21T22:19:23.515Z,76.95
2023-02-21T22:21:50.923Z,85.85
2023-02-21T22:24:21.135Z,73.25
2023-02-21T22:26:48.298Z,77.40
2023-02-21T22:31:42.259Z,96.03
2023-02-21T22:34:09.620Z,95.57
2023-02-21T22:46:29.135Z,97.28
2023-02-21T22:48:56.587Z,90.72
2023-02-21T22:53:53.706Z,101.03
2023-02-21T22:56:25.434Z,106.13
2023-02-21T23:11:41.041Z,136.60
2023-02-21T23:14:09.140Z,114.60
2023-02-21T23:19:03.121Z,114.13
2023-02-21T23:21:30.762Z,99.22
2023-02-21T23:26:24.720Z,91.40
2023-02-21T23:28:51.872Z,101.80
2023-02-21T23:36:13.832Z,85.13
2023-02-21T23:38:41.071Z,81.25
2023-02-21T23:41:11.091Z,82.90
2023-02-21T23:43:37.871Z,82.47
2023-02-21T23:48:34.606Z,83.65
2023-02-21T23:51:01.644Z,75.47
